sensor_id;sensor_type;location;lat;lon;timestamp;P1;durP1;ratioP1;P2;durP2;ratioP2
7025;SDS011;3554;42.132;24.786;2023-06-19T00:02:02;5.57;;;5.23;;
7025;SDS011;3554;42.132;24.786;2023-06-19T00:04:29;6.23;;;5.63;;
7025;SDS011;3554;42.132;24.786;2023-06-19T00:06:56;5.90;;;5.53;;
7025;SDS011;3554;42.132;24.786;2023-06-19T00:09:26;6.37;;;6.07;;
7025;SDS011;3554;42.132;24.786;2023-06-19T00:11:53;6.00;;;5.50;;
7025;SDS011;3554;42.132;24.786;2023-06-19T00:14:20;6.13;;;5.70;;
7025;SDS011;3554;42.132;24.786;2023-06-19T00:16:48;5.63;;;5.20;;
7025;SDS011;3554;42.132;24.786;2023-06-19T00:19:16;5.93;;;5.43;;
7025;SDS011;3554;42.132;24.786;2023-06-19T00:21:43;7.37;;;6.37;;
7025;SDS011;3554;42.132;24.786;2023-06-19T00:24:10;5.77;;;5.47;;
7025;SDS011;3554;42.132;24.786;2023-06-19T00:26:37;6.37;;;5.80;;
7025;SDS011;3554;42.132;24.786;2023-06-19T00:29:05;6.03;;;5.73;;
7025;SDS011;3554;42.132;24.786;2023-06-19T00:31:32;5.93;;;5.50;;
7025;SDS011;3554;42.132;24.786;2023-06-19T00:34:03;6.00;;;5.63;;
7025;SDS011;3554;42.132;24.786;2023-06-19T00:36:30;5.67;;;5.37;;
7025;SDS011;3554;42.132;24.786;2023-06-19T00:38:57;8.07;;;5.67;;
7025;SDS011;3554;42.132;24.786;2023-06-19T00:41:25;6.27;;;5.77;;
7025;SDS011;3554;42.132;24.786;2023-06-19T00:43:56;5.93;;;5.53;;
7025;SDS011;3554;42.132;24.786;2023-06-19T00:46:23;5.70;;;5.40;;
7025;SDS011;3554;42.132;24.786;2023-06-19T00:48:50;6.20;;;5.70;;
7025;SDS011;3554;42.132;24.786;2023-06-19T00:51:18;6.20;;;5.80;;
7025;SDS011;3554;42.132;24.786;2023-06-19T00:53:45;5.90;;;5.60;;
7025;SDS011;3554;42.132;24.786;2023-06-19T00:56:12;5.30;;;5.03;;
7025;SDS011;3554;42.132;24.786;2023-06-19T00:58:40;5.83;;;5.53;;
7025;SDS011;3554;42.132;24.786;2023-06-19T01:01:07;8.60;;;5.33;;
7025;SDS011;3554;42.132;24.786;2023-06-19T01:03:34;5.73;;;5.43;;
7025;SDS011;3554;42.132;24.786;2023-06-19T01:06:02;6.47;;;5.90;;
7025;SDS011;3554;42.132;24.786;2023-06-19T01:08:43;5.63;;;5.33;;
7025;SDS011;3554;42.132;24.786;2023-06-19T01:11:17;5.83;;;5.53;;
7025;SDS011;3554;42.132;24.786;2023-06-19T01:13:48;5.57;;;5.30;;
7025;SDS011;3554;42.132;24.786;2023-06-19T01:16:21;5.83;;;5.43;;
7025;SDS011;3554;42.132;24.786;2023-06-19T01:18:49;5.87;;;5.30;;
7025;SDS011;3554;42.132;24.786;2023-06-19T01:21:17;5.97;;;5.57;;
7025;SDS011;3554;42.132;24.786;2023-06-19T01:23:46;5.57;;;5.27;;
7025;SDS011;3554;42.132;24.786;2023-06-19T01:26:13;5.53;;;5.13;;
7025;SDS011;3554;42.132;24.786;2023-06-19T01:28:41;5.00;;;4.70;;
7025;SDS011;3554;42.132;24.786;2023-06-19T01:31:11;5.00;;;4.60;;
7025;SDS011;3554;42.132;24.786;2023-06-19T01:33:41;5.30;;;4.97;;
7025;SDS011;3554;42.132;24.786;2023-06-19T01:36:10;6.13;;;5.70;;
7025;SDS011;3554;42.132;24.786;2023-06-19T01:38:39;7.83;;;5.50;;
7025;SDS011;3554;42.132;24.786;2023-06-19T01:41:11;5.57;;;5.17;;
7025;SDS011;3554;42.132;24.786;2023-06-19T01:43:38;5.73;;;5.47;;
7025;SDS011;3554;42.132;24.786;2023-06-19T01:46:06;4.70;;;4.50;;
7025;SDS011;3554;42.132;24.786;2023-06-19T01:48:34;5.00;;;4.70;;
7025;SDS011;3554;42.132;24.786;2023-06-19T01:51:01;6.07;;;5.53;;
7025;SDS011;3554;42.132;24.786;2023-06-19T01:53:30;5.40;;;4.90;;
7025;SDS011;3554;42.132;24.786;2023-06-19T01:55:57;5.83;;;5.33;;
7025;SDS011;3554;42.132;24.786;2023-06-19T01:58:26;5.50;;;5.13;;
7025;SDS011;3554;42.132;24.786;2023-06-19T02:00:52;5.30;;;5.00;;
7025;SDS011;3554;42.132;24.786;2023-06-19T02:03:19;4.97;;;4.53;;
7025;SDS011;3554;42.132;24.786;2023-06-19T02:05:46;5.40;;;4.97;;
7025;SDS011;3554;42.132;24.786;2023-06-19T02:08:13;5.70;;;5.20;;
7025;SDS011;3554;42.132;24.786;2023-06-19T02:10:40;5.17;;;4.70;;
7025;SDS011;3554;42.132;24.786;2023-06-19T02:13:07;5.40;;;4.93;;
7025;SDS011;3554;42.132;24.786;2023-06-19T02:15:35;4.40;;;4.20;;
7025;SDS011;3554;42.132;24.786;2023-06-19T02:18:03;5.17;;;4.83;;
7025;SDS011;3554;42.132;24.786;2023-06-19T02:20:30;5.07;;;4.77;;
7025;SDS011;3554;42.132;24.786;2023-06-19T02:22:57;6.67;;;5.77;;
7025;SDS011;3554;42.132;24.786;2023-06-19T02:25:24;5.50;;;5.00;;
7025;SDS011;3554;42.132;24.786;2023-06-19T02:27:51;6.23;;;5.17;;
7025;SDS011;3554;42.132;24.786;2023-06-19T02:30:18;5.70;;;5.30;;
7025;SDS011;3554;42.132;24.786;2023-06-19T02:32:46;5.33;;;4.80;;
7025;SDS011;3554;42.132;24.786;2023-06-19T02:35:13;5.57;;;5.07;;
7025;SDS011;3554;42.132;24.786;2023-06-19T02:37:40;5.77;;;5.37;;
7025;SDS011;3554;42.132;24.786;2023-06-19T02:40:08;5.63;;;5.23;;
7025;SDS011;3554;42.132;24.786;2023-06-19T02:42:35;5.93;;;5.60;;
7025;SDS011;3554;42.132;24.786;2023-06-19T02:45:02;4.90;;;4.70;;
7025;SDS011;3554;42.132;24.786;2023-06-19T02:47:30;5.63;;;5.23;;
7025;SDS011;3554;42.132;24.786;2023-06-19T02:49:58;6.53;;;6.13;;
7025;SDS011;3554;42.132;24.786;2023-06-19T02:52:26;7.20;;;4.70;;
7025;SDS011;3554;42.132;24.786;2023-06-19T02:54:54;6.17;;;4.97;;
7025;SDS011;3554;42.132;24.786;2023-06-19T02:57:21;5.07;;;4.77;;
7025;SDS011;3554;42.132;24.786;2023-06-19T02:59:47;5.43;;;5.10;;
7025;SDS011;3554;42.132;24.786;2023-06-19T03:02:14;5.10;;;4.80;;
7025;SDS011;3554;42.132;24.786;2023-06-19T03:04:41;5.10;;;4.80;;
7025;SDS011;3554;42.132;24.786;2023-06-19T03:07:10;5.73;;;5.00;;
7025;SDS011;3554;42.132;24.786;2023-06-19T03:09:38;4.53;;;4.33;;
7025;SDS011;3554;42.132;24.786;2023-06-19T03:12:05;5.33;;;4.77;;
7025;SDS011;3554;42.132;24.786;2023-06-19T03:14:33;4.43;;;4.17;;
7025;SDS011;3554;42.132;24.786;2023-06-19T03:17:00;5.40;;;5.10;;
7025;SDS011;3554;42.132;24.786;2023-06-19T03:19:27;5.20;;;4.80;;
7025;SDS011;3554;42.132;24.786;2023-06-19T03:21:53;5.33;;;4.87;;
7025;SDS011;3554;42.132;24.786;2023-06-19T03:24:21;6.10;;;5.03;;
7025;SDS011;3554;42.132;24.786;2023-06-19T03:26:48;5.20;;;4.90;;
7025;SDS011;3554;42.132;24.786;2023-06-19T03:29:15;4.87;;;4.50;;
7025;SDS011;3554;42.132;24.786;2023-06-19T03:31:42;5.27;;;4.90;;
7025;SDS011;3554;42.132;24.786;2023-06-19T03:34:09;5.20;;;4.90;;
7025;SDS011;3554;42.132;24.786;2023-06-19T03:36:35;4.60;;;4.40;;
7025;SDS011;3554;42.132;24.786;2023-06-19T03:39:03;4.63;;;4.43;;
7025;SDS011;3554;42.132;24.786;2023-06-19T03:41:31;5.67;;;5.37;;
7025;SDS011;3554;42.132;24.786;2023-06-19T03:43:57;5.10;;;4.80;;
7025;SDS011;3554;42.132;24.786;2023-06-19T03:46:24;5.63;;;5.13;;
7025;SDS011;3554;42.132;24.786;2023-06-19T03:48:51;7.63;;;5.20;;
7025;SDS011;3554;42.132;24.786;2023-06-19T03:51:18;5.70;;;5.40;;
7025;SDS011;3554;42.132;24.786;2023-06-19T03:53:45;5.57;;;5.17;;
7025;SDS011;3554;42.132;24.786;2023-06-19T03:56:12;5.73;;;5.20;;
7025;SDS011;3554;42.132;24.786;2023-06-19T03:58:40;5.47;;;5.00;;
7025;SDS011;3554;42.132;24.786;2023-06-19T04:01:07;5.53;;;5.13;;
7025;SDS011;3554;42.132;24.786;2023-06-19T04:03:33;5.93;;;5.50;;
7025;SDS011;3554;42.132;24.786;2023-06-19T04:06:00;5.33;;;4.93;;
7025;SDS011;3554;42.132;24.786;2023-06-19T04:08:27;4.80;;;4.60;;
7025;SDS011;3554;42.132;24.786;2023-06-19T04:10:54;5.30;;;4.90;;
7025;SDS011;3554;42.132;24.786;2023-06-19T04:13:20;6.17;;;4.43;;
7025;SDS011;3554;42.132;24.786;2023-06-19T04:15:49;5.17;;;4.80;;
7025;SDS011;3554;42.132;24.786;2023-06-19T04:18:15;4.60;;;4.27;;
7025;SDS011;3554;42.132;24.786;2023-06-19T04:20:42;5.33;;;4.93;;
7025;SDS011;3554;42.132;24.786;2023-06-19T04:23:09;4.47;;;4.27;;
7025;SDS011;3554;42.132;24.786;2023-06-19T04:25:36;6.13;;;5.53;;
7025;SDS011;3554;42.132;24.786;2023-06-19T04:28:03;5.67;;;4.93;;
7025;SDS011;3554;42.132;24.786;2023-06-19T04:30:30;5.60;;;4.87;;
7025;SDS011;3554;42.132;24.786;2023-06-19T04:32:58;5.07;;;4.77;;
7025;SDS011;3554;42.132;24.786;2023-06-19T04:35:25;5.43;;;5.13;;
7025;SDS011;3554;42.132;24.786;2023-06-19T04:37:52;5.00;;;4.70;;
7025;SDS011;3554;42.132;24.786;2023-06-19T04:40:19;5.70;;;5.50;;
7025;SDS011;3554;42.132;24.786;2023-06-19T04:42:46;4.53;;;4.33;;
7025;SDS011;3554;42.132;24.786;2023-06-19T04:45:13;5.10;;;4.60;;
7025;SDS011;3554;42.132;24.786;2023-06-19T04:47:40;4.47;;;4.17;;
7025;SDS011;3554;42.132;24.786;2023-06-19T04:50:10;5.03;;;4.63;;
7025;SDS011;3554;42.132;24.786;2023-06-19T04:52:37;5.20;;;4.70;;
7025;SDS011;3554;42.132;24.786;2023-06-19T04:55:05;5.53;;;5.07;;
7025;SDS011;3554;42.132;24.786;2023-06-19T04:57:34;7.77;;;5.00;;
7025;SDS011;3554;42.132;24.786;2023-06-19T05:00:02;4.77;;;4.37;;
7025;SDS011;3554;42.132;24.786;2023-06-19T05:02:30;4.90;;;4.50;;
7025;SDS011;3554;42.132;24.786;2023-06-19T05:04:57;6.97;;;5.00;;
7025;SDS011;3554;42.132;24.786;2023-06-19T05:07:28;5.93;;;5.10;;
7025;SDS011;3554;42.132;24.786;2023-06-19T05:09:56;4.90;;;4.40;;
7025;SDS011;3554;42.132;24.786;2023-06-19T05:12:22;5.10;;;4.70;;
7025;SDS011;3554;42.132;24.786;2023-06-19T05:14:49;4.60;;;4.40;;
7025;SDS011;3554;42.132;24.786;2023-06-19T05:17:17;4.70;;;4.30;;
7025;SDS011;3554;42.132;24.786;2023-06-19T05:19:43;4.93;;;4.53;;
7025;SDS011;3554;42.132;24.786;2023-06-19T05:22:10;5.17;;;4.77;;
7025;SDS011;3554;42.132;24.786;2023-06-19T05:24:38;4.77;;;4.47;;
7025;SDS011;3554;42.132;24.786;2023-06-19T05:27:05;5.00;;;4.60;;
7025;SDS011;3554;42.132;24.786;2023-06-19T05:29:32;4.63;;;4.30;;
7025;SDS011;3554;42.132;24.786;2023-06-19T05:31:59;4.63;;;4.33;;
7025;SDS011;3554;42.132;24.786;2023-06-19T05:34:26;4.97;;;4.77;;
7025;SDS011;3554;42.132;24.786;2023-06-19T05:36:53;4.50;;;4.30;;
7025;SDS011;3554;42.132;24.786;2023-06-19T05:39:20;4.83;;;4.47;;
7025;SDS011;3554;42.132;24.786;2023-06-19T05:41:48;4.63;;;4.13;;
7025;SDS011;3554;42.132;24.786;2023-06-19T05:44:14;5.23;;;4.53;;
7025;SDS011;3554;42.132;24.786;2023-06-19T05:46:42;4.70;;;4.47;;
7025;SDS011;3554;42.132;24.786;2023-06-19T05:49:09;5.20;;;4.07;;
7025;SDS011;3554;42.132;24.786;2023-06-19T05:51:35;4.57;;;4.30;;
7025;SDS011;3554;42.132;24.786;2023-06-19T05:54:02;5.10;;;4.90;;
7025;SDS011;3554;42.132;24.786;2023-06-19T05:56:29;5.57;;;5.10;;
7025;SDS011;3554;42.132;24.786;2023-06-19T05:58:59;5.23;;;4.83;;
7025;SDS011;3554;42.132;24.786;2023-06-19T06:01:26;4.83;;;4.57;;
7025;SDS011;3554;42.132;24.786;2023-06-19T06:03:53;4.20;;;3.90;;
7025;SDS011;3554;42.132;24.786;2023-06-19T06:06:20;4.90;;;4.50;;
7025;SDS011;3554;42.132;24.786;2023-06-19T06:08:47;5.47;;;4.17;;
7025;SDS011;3554;42.132;24.786;2023-06-19T06:11:14;5.77;;;5.17;;
7025;SDS011;3554;42.132;24.786;2023-06-19T06:13:41;5.10;;;4.77;;
7025;SDS011;3554;42.132;24.786;2023-06-19T06:16:09;8.00;;;4.73;;
7025;SDS011;3554;42.132;24.786;2023-06-19T06:18:36;5.37;;;4.50;;
7025;SDS011;3554;42.132;24.786;2023-06-19T06:21:03;5.40;;;5.10;;
7025;SDS011;3554;42.132;24.786;2023-06-19T06:23:30;4.10;;;3.80;;
7025;SDS011;3554;42.132;24.786;2023-06-19T06:25:56;5.17;;;4.63;;
7025;SDS011;3554;42.132;24.786;2023-06-19T06:28:27;4.70;;;4.30;;
7025;SDS011;3554;42.132;24.786;2023-06-19T06:30:54;5.17;;;4.87;;
7025;SDS011;3554;42.132;24.786;2023-06-19T06:33:22;8.20;;;5.00;;
7025;SDS011;3554;42.132;24.786;2023-06-19T06:35:49;5.50;;;5.10;;
7025;SDS011;3554;42.132;24.786;2023-06-19T06:38:16;4.83;;;4.43;;
7025;SDS011;3554;42.132;24.786;2023-06-19T06:40:43;4.73;;;4.30;;
7025;SDS011;3554;42.132;24.786;2023-06-19T06:43:10;4.60;;;4.27;;
7025;SDS011;3554;42.132;24.786;2023-06-19T06:45:36;4.53;;;4.13;;
7025;SDS011;3554;42.132;24.786;2023-06-19T06:48:04;5.13;;;4.83;;
7025;SDS011;3554;42.132;24.786;2023-06-19T06:50:33;5.13;;;4.67;;
7025;SDS011;3554;42.132;24.786;2023-06-19T06:53:00;4.23;;;4.03;;
7025;SDS011;3554;42.132;24.786;2023-06-19T06:55:28;4.77;;;4.57;;
7025;SDS011;3554;42.132;24.786;2023-06-19T06:57:54;4.97;;;4.40;;
7025;SDS011;3554;42.132;24.786;2023-06-19T07:00:21;4.90;;;4.50;;
7025;SDS011;3554;42.132;24.786;2023-06-19T07:02:48;4.47;;;4.27;;
7025;SDS011;3554;42.132;24.786;2023-06-19T07:05:15;4.70;;;4.30;;
7025;SDS011;3554;42.132;24.786;2023-06-19T07:07:44;5.10;;;4.90;;
7025;SDS011;3554;42.132;24.786;2023-06-19T07:10:11;4.73;;;4.43;;
7025;SDS011;3554;42.132;24.786;2023-06-19T07:12:44;4.50;;;4.30;;
7025;SDS011;3554;42.132;24.786;2023-06-19T07:15:12;4.57;;;4.27;;
7025;SDS011;3554;42.132;24.786;2023-06-19T07:17:39;5.47;;;4.93;;
7025;SDS011;3554;42.132;24.786;2023-06-19T07:20:06;4.30;;;4.00;;
7025;SDS011;3554;42.132;24.786;2023-06-19T07:22:34;4.77;;;4.57;;
7025;SDS011;3554;42.132;24.786;2023-06-19T07:25:03;4.27;;;4.07;;
7025;SDS011;3554;42.132;24.786;2023-06-19T07:27:31;6.87;;;4.70;;
7025;SDS011;3554;42.132;24.786;2023-06-19T07:29:57;4.37;;;4.07;;
7025;SDS011;3554;42.132;24.786;2023-06-19T07:32:24;4.70;;;4.30;;
7025;SDS011;3554;42.132;24.786;2023-06-19T07:34:51;4.30;;;4.10;;
7025;SDS011;3554;42.132;24.786;2023-06-19T07:37:18;4.83;;;4.40;;
7025;SDS011;3554;42.132;24.786;2023-06-19T07:39:45;4.30;;;3.87;;
7025;SDS011;3554;42.132;24.786;2023-06-19T07:42:14;5.70;;;4.23;;
7025;SDS011;3554;42.132;24.786;2023-06-19T07:44:41;5.80;;;5.50;;
7025;SDS011;3554;42.132;24.786;2023-06-19T07:47:08;5.97;;;5.47;;
7025;SDS011;3554;42.132;24.786;2023-06-19T07:49:36;5.70;;;3.87;;
7025;SDS011;3554;42.132;24.786;2023-06-19T07:52:03;4.17;;;3.97;;
7025;SDS011;3554;42.132;24.786;2023-06-19T07:54:33;6.03;;;4.37;;
7025;SDS011;3554;42.132;24.786;2023-06-19T07:57:00;4.53;;;4.23;;
7025;SDS011;3554;42.132;24.786;2023-06-19T07:59:29;4.77;;;4.43;;
7025;SDS011;3554;42.132;24.786;2023-06-19T08:01:55;4.50;;;4.27;;
7025;SDS011;3554;42.132;24.786;2023-06-19T08:04:22;9.47;;;4.80;;
7025;SDS011;3554;42.132;24.786;2023-06-19T08:06:49;5.43;;;4.93;;
7025;SDS011;3554;42.132;24.786;2023-06-19T08:09:16;4.50;;;4.13;;
7025;SDS011;3554;42.132;24.786;2023-06-19T08:11:43;4.80;;;4.40;;
7025;SDS011;3554;42.132;24.786;2023-06-19T08:14:10;5.10;;;4.80;;
7025;SDS011;3554;42.132;24.786;2023-06-19T08:16:38;6.40;;;4.73;;
7025;SDS011;3554;42.132;24.786;2023-06-19T08:19:05;4.90;;;4.57;;
7025;SDS011;3554;42.132;24.786;2023-06-19T08:21:31;5.20;;;4.80;;
7025;SDS011;3554;42.132;24.786;2023-06-19T08:23:58;4.57;;;4.27;;
7025;SDS011;3554;42.132;24.786;2023-06-19T08:26:25;4.73;;;4.20;;
7025;SDS011;3554;42.132;24.786;2023-06-19T08:28:52;4.80;;;4.60;;
7025;SDS011;3554;42.132;24.786;2023-06-19T08:31:18;4.50;;;4.30;;
7025;SDS011;3554;42.132;24.786;2023-06-19T08:33:48;5.20;;;4.90;;
7025;SDS011;3554;42.132;24.786;2023-06-19T08:36:15;4.57;;;4.30;;
7025;SDS011;3554;42.132;24.786;2023-06-19T08:38:41;4.83;;;4.03;;
7025;SDS011;3554;42.132;24.786;2023-06-19T08:41:08;4.97;;;4.57;;
7025;SDS011;3554;42.132;24.786;2023-06-19T08:43:35;4.90;;;4.60;;
7025;SDS011;3554;42.132;24.786;2023-06-19T08:46:06;5.23;;;4.60;;
7025;SDS011;3554;42.132;24.786;2023-06-19T08:48:36;4.97;;;4.57;;
7025;SDS011;3554;42.132;24.786;2023-06-19T08:51:04;4.47;;;4.07;;
7025;SDS011;3554;42.132;24.786;2023-06-19T08:53:33;4.80;;;4.40;;
7025;SDS011;3554;42.132;24.786;2023-06-19T08:56:01;6.03;;;4.93;;
7025;SDS011;3554;42.132;24.786;2023-06-19T08:58:28;4.50;;;4.20;;
7025;SDS011;3554;42.132;24.786;2023-06-19T09:00:57;4.30;;;4.10;;
7025;SDS011;3554;42.132;24.786;2023-06-19T09:03:24;4.90;;;4.57;;
7025;SDS011;3554;42.132;24.786;2023-06-19T09:05:51;4.83;;;4.53;;
7025;SDS011;3554;42.132;24.786;2023-06-19T09:08:19;4.53;;;4.13;;
7025;SDS011;3554;42.132;24.786;2023-06-19T09:10:55;4.83;;;4.43;;
7025;SDS011;3554;42.132;24.786;2023-06-19T09:13:22;4.37;;;4.17;;
7025;SDS011;3554;42.132;24.786;2023-06-19T09:15:56;5.00;;;4.60;;
7025;SDS011;3554;42.132;24.786;2023-06-19T09:18:24;4.60;;;4.40;;
7025;SDS011;3554;42.132;24.786;2023-06-19T09:20:52;4.63;;;4.37;;
7025;SDS011;3554;42.132;24.786;2023-06-19T09:23:21;4.70;;;4.27;;
7025;SDS011;3554;42.132;24.786;2023-06-19T09:25:49;4.37;;;4.17;;
7025;SDS011;3554;42.132;24.786;2023-06-19T09:28:18;4.67;;;4.37;;
7025;SDS011;3554;42.132;24.786;2023-06-19T09:30:52;5.57;;;5.00;;
7025;SDS011;3554;42.132;24.786;2023-06-19T09:33:19;4.97;;;4.63;;
7025;SDS011;3554;42.132;24.786;2023-06-19T09:35:47;5.33;;;5.00;;
7025;SDS011;3554;42.132;24.786;2023-06-19T09:38:15;4.83;;;4.53;;
7025;SDS011;3554;42.132;24.786;2023-06-19T09:40:45;5.00;;;4.70;;
7025;SDS011;3554;42.132;24.786;2023-06-19T09:43:13;4.80;;;4.43;;
7025;SDS011;3554;42.132;24.786;2023-06-19T09:45:45;4.97;;;4.67;;
7025;SDS011;3554;42.132;24.786;2023-06-19T09:48:14;4.20;;;3.90;;
7025;SDS011;3554;42.132;24.786;2023-06-19T09:50:47;12.73;;;6.33;;
7025;SDS011;3554;42.132;24.786;2023-06-19T09:53:17;5.53;;;4.87;;
7025;SDS011;3554;42.132;24.786;2023-06-19T09:55:46;4.93;;;4.63;;
7025;SDS011;3554;42.132;24.786;2023-06-19T09:58:15;5.27;;;4.97;;
7025;SDS011;3554;42.132;24.786;2023-06-19T10:00:43;4.97;;;4.70;;
7025;SDS011;3554;42.132;24.786;2023-06-19T10:03:11;4.37;;;4.07;;
7025;SDS011;3554;42.132;24.786;2023-06-19T10:05:39;4.90;;;4.43;;
7025;SDS011;3554;42.132;24.786;2023-06-19T10:08:06;4.73;;;4.50;;
7025;SDS011;3554;42.132;24.786;2023-06-19T10:10:33;4.87;;;4.20;;
7025;SDS011;3554;42.132;24.786;2023-06-19T10:13:12;4.10;;;3.70;;
7025;SDS011;3554;42.132;24.786;2023-06-19T10:15:40;4.40;;;4.20;;
7025;SDS011;3554;42.132;24.786;2023-06-19T10:18:13;4.73;;;4.43;;
7025;SDS011;3554;42.132;24.786;2023-06-19T10:20:42;4.10;;;3.80;;
7025;SDS011;3554;42.132;24.786;2023-06-19T10:23:10;4.40;;;4.10;;
7025;SDS011;3554;42.132;24.786;2023-06-19T10:25:41;4.30;;;4.10;;
7025;SDS011;3554;42.132;24.786;2023-06-19T10:28:17;4.30;;;3.97;;
7025;SDS011;3554;42.132;24.786;2023-06-19T10:30:44;5.13;;;4.33;;
7025;SDS011;3554;42.132;24.786;2023-06-19T10:33:17;5.37;;;4.97;;
7025;SDS011;3554;42.132;24.786;2023-06-19T10:35:44;5.00;;;4.80;;
7025;SDS011;3554;42.132;24.786;2023-06-19T10:38:13;4.70;;;4.40;;
7025;SDS011;3554;42.132;24.786;2023-06-19T10:40:42;4.40;;;4.10;;
7025;SDS011;3554;42.132;24.786;2023-06-19T10:43:10;4.40;;;4.10;;
7025;SDS011;3554;42.132;24.786;2023-06-19T10:45:39;3.70;;;3.40;;
7025;SDS011;3554;42.132;24.786;2023-06-19T10:48:05;6.03;;;3.33;;
7025;SDS011;3554;42.132;24.786;2023-06-19T10:50:36;15.97;;;4.83;;
7025;SDS011;3554;42.132;24.786;2023-06-19T10:53:06;3.80;;;3.50;;
7025;SDS011;3554;42.132;24.786;2023-06-19T10:55:33;3.47;;;3.37;;
7025;SDS011;3554;42.132;24.786;2023-06-19T10:58:00;4.07;;;3.77;;
7025;SDS011;3554;42.132;24.786;2023-06-19T11:00:27;5.43;;;5.13;;
7025;SDS011;3554;42.132;24.786;2023-06-19T11:02:57;5.00;;;4.03;;
7025;SDS011;3554;42.132;24.786;2023-06-19T11:05:25;4.60;;;3.87;;
7025;SDS011;3554;42.132;24.786;2023-06-19T11:07:54;6.70;;;5.10;;
7025;SDS011;3554;42.132;24.786;2023-06-19T11:10:22;4.13;;;3.83;;
7025;SDS011;3554;42.132;24.786;2023-06-19T11:12:49;7.03;;;4.40;;
7025;SDS011;3554;42.132;24.786;2023-06-19T11:15:19;4.27;;;4.07;;
7025;SDS011;3554;42.132;24.786;2023-06-19T11:17:46;4.73;;;4.50;;
7025;SDS011;3554;42.132;24.786;2023-06-19T11:20:15;4.37;;;4.07;;
7025;SDS011;3554;42.132;24.786;2023-06-19T11:22:41;4.97;;;4.23;;
7025;SDS011;3554;42.132;24.786;2023-06-19T11:25:09;4.23;;;3.93;;
7025;SDS011;3554;42.132;24.786;2023-06-19T11:27:37;4.00;;;3.70;;
7025;SDS011;3554;42.132;24.786;2023-06-19T11:30:06;6.13;;;4.20;;
7025;SDS011;3554;42.132;24.786;2023-06-19T11:32:35;4.50;;;4.17;;
7025;SDS011;3554;42.132;24.786;2023-06-19T11:35:07;3.83;;;3.63;;
7025;SDS011;3554;42.132;24.786;2023-06-19T11:37:39;4.67;;;4.23;;
7025;SDS011;3554;42.132;24.786;2023-06-19T11:40:07;4.13;;;3.83;;
7025;SDS011;3554;42.132;24.786;2023-06-19T11:42:46;4.77;;;4.43;;
7025;SDS011;3554;42.132;24.786;2023-06-19T11:45:14;4.07;;;3.83;;
7025;SDS011;3554;42.132;24.786;2023-06-19T11:47:43;3.77;;;3.57;;
7025;SDS011;3554;42.132;24.786;2023-06-19T11:50:10;4.00;;;3.70;;
7025;SDS011;3554;42.132;24.786;2023-06-19T11:52:39;3.60;;;3.30;;
7025;SDS011;3554;42.132;24.786;2023-06-19T11:55:06;3.70;;;3.40;;
7025;SDS011;3554;42.132;24.786;2023-06-19T11:57:33;4.10;;;3.70;;
7025;SDS011;3554;42.132;24.786;2023-06-19T12:00:00;5.63;;;4.10;;
7025;SDS011;3554;42.132;24.786;2023-06-19T12:02:32;4.70;;;4.27;;
7025;SDS011;3554;42.132;24.786;2023-06-19T12:04:58;4.13;;;3.30;;
7025;SDS011;3554;42.132;24.786;2023-06-19T12:07:26;3.53;;;3.30;;
7025;SDS011;3554;42.132;24.786;2023-06-19T12:09:54;3.40;;;3.13;;
7025;SDS011;3554;42.132;24.786;2023-06-19T12:12:20;4.93;;;3.60;;
7025;SDS011;3554;42.132;24.786;2023-06-19T12:14:47;3.90;;;3.43;;
7025;SDS011;3554;42.132;24.786;2023-06-19T12:17:14;3.97;;;3.67;;
7025;SDS011;3554;42.132;24.786;2023-06-19T12:19:41;3.83;;;3.63;;
7025;SDS011;3554;42.132;24.786;2023-06-19T12:22:08;3.70;;;3.40;;
7025;SDS011;3554;42.132;24.786;2023-06-19T12:24:34;3.33;;;2.95;;
7025;SDS011;3554;42.132;24.786;2023-06-19T12:27:03;4.72;;;3.95;;
7025;SDS011;3554;42.132;24.786;2023-06-19T12:29:30;3.50;;;3.40;;
7025;SDS011;3554;42.132;24.786;2023-06-19T12:31:59;3.85;;;3.55;;
7025;SDS011;3554;42.132;24.786;2023-06-19T12:34:28;3.58;;;3.38;;
7025;SDS011;3554;42.132;24.786;2023-06-19T12:36:54;2.95;;;2.75;;
7025;SDS011;3554;42.132;24.786;2023-06-19T12:39:23;3.10;;;2.90;;
7025;SDS011;3554;42.132;24.786;2023-06-19T12:41:50;3.17;;;2.97;;
7025;SDS011;3554;42.132;24.786;2023-06-19T12:44:19;5.45;;;2.90;;
7025;SDS011;3554;42.132;24.786;2023-06-19T12:46:47;4.63;;;3.08;;
7025;SDS011;3554;42.132;24.786;2023-06-19T12:49:14;3.10;;;2.90;;
7025;SDS011;3554;42.132;24.786;2023-06-19T12:51:41;3.57;;;3.27;;
7025;SDS011;3554;42.132;24.786;2023-06-19T12:54:08;6.50;;;3.40;;
7025;SDS011;3554;42.132;24.786;2023-06-19T12:56:35;2.75;;;2.65;;
7025;SDS011;3554;42.132;24.786;2023-06-19T12:59:01;2.95;;;2.85;;
7025;SDS011;3554;42.132;24.786;2023-06-19T13:01:30;3.40;;;3.13;;
7025;SDS011;3554;42.132;24.786;2023-06-19T13:03:56;3.30;;;3.00;;
7025;SDS011;3554;42.132;24.786;2023-06-19T13:06:23;6.68;;;2.78;;
7025;SDS011;3554;42.132;24.786;2023-06-19T13:08:50;3.15;;;3.00;;
7025;SDS011;3554;42.132;24.786;2023-06-19T13:11:17;3.45;;;3.25;;
7025;SDS011;3554;42.132;24.786;2023-06-19T13:13:44;3.67;;;2.80;;
7025;SDS011;3554;42.132;24.786;2023-06-19T13:16:11;5.07;;;3.33;;
7025;SDS011;3554;42.132;24.786;2023-06-19T13:18:39;7.47;;;3.00;;
7025;SDS011;3554;42.132;24.786;2023-06-19T13:21:06;4.40;;;2.70;;
7025;SDS011;3554;42.132;24.786;2023-06-19T13:23:33;5.47;;;3.05;;
7025;SDS011;3554;42.132;24.786;2023-06-19T13:25:59;3.67;;;3.47;;
7025;SDS011;3554;42.132;24.786;2023-06-19T13:28:26;3.30;;;3.10;;
7025;SDS011;3554;42.132;24.786;2023-06-19T13:30:53;4.00;;;2.97;;
7025;SDS011;3554;42.132;24.786;2023-06-19T13:33:20;3.55;;;3.35;;
7025;SDS011;3554;42.132;24.786;2023-06-19T13:35:48;4.18;;;3.78;;
7025;SDS011;3554;42.132;24.786;2023-06-19T13:38:15;4.28;;;3.33;;
7025;SDS011;3554;42.132;24.786;2023-06-19T13:40:42;3.30;;;3.03;;
7025;SDS011;3554;42.132;24.786;2023-06-19T13:43:09;3.72;;;3.35;;
7025;SDS011;3554;42.132;24.786;2023-06-19T13:45:36;5.18;;;3.58;;
7025;SDS011;3554;42.132;24.786;2023-06-19T13:48:04;15.10;;;4.30;;
7025;SDS011;3554;42.132;24.786;2023-06-19T13:50:30;3.97;;;3.67;;
7025;SDS011;3554;42.132;24.786;2023-06-19T13:52:59;4.75;;;4.45;;
7025;SDS011;3554;42.132;24.786;2023-06-19T13:55:27;4.25;;;4.00;;
7025;SDS011;3554;42.132;24.786;2023-06-19T13:57:53;5.87;;;5.23;;
7025;SDS011;3554;42.132;24.786;2023-06-19T14:00:20;7.10;;;5.10;;
7025;SDS011;3554;42.132;24.786;2023-06-19T14:02:48;8.37;;;5.80;;
7025;SDS011;3554;42.132;24.786;2023-06-19T14:05:16;4.83;;;4.50;;
7025;SDS011;3554;42.132;24.786;2023-06-19T14:07:43;9.10;;;6.43;;
7025;SDS011;3554;42.132;24.786;2023-06-19T14:10:11;4.20;;;4.00;;
7025;SDS011;3554;42.132;24.786;2023-06-19T14:12:38;7.20;;;5.87;;
7025;SDS011;3554;42.132;24.786;2023-06-19T14:15:06;4.97;;;4.57;;
7025;SDS011;3554;42.132;24.786;2023-06-19T14:17:34;7.90;;;4.63;;
7025;SDS011;3554;42.132;24.786;2023-06-19T14:20:00;5.60;;;5.20;;
7025;SDS011;3554;42.132;24.786;2023-06-19T14:22:29;5.93;;;5.43;;
7025;SDS011;3554;42.132;24.786;2023-06-19T14:24:56;4.50;;;4.30;;
7025;SDS011;3554;42.132;24.786;2023-06-19T14:27:26;5.17;;;4.80;;
7025;SDS011;3554;42.132;24.786;2023-06-19T14:29:53;4.83;;;4.23;;
7025;SDS011;3554;42.132;24.786;2023-06-19T14:32:20;4.63;;;4.33;;
7025;SDS011;3554;42.132;24.786;2023-06-19T14:34:47;4.20;;;3.97;;
7025;SDS011;3554;42.132;24.786;2023-06-19T14:37:14;5.30;;;4.90;;
7025;SDS011;3554;42.132;24.786;2023-06-19T14:39:40;4.77;;;4.40;;
7025;SDS011;3554;42.132;24.786;2023-06-19T14:42:08;7.93;;;7.40;;
7025;SDS011;3554;42.132;24.786;2023-06-19T14:44:36;4.67;;;4.47;;
7025;SDS011;3554;42.132;24.786;2023-06-19T14:47:03;3.70;;;3.37;;
7025;SDS011;3554;42.132;24.786;2023-06-19T14:49:30;4.57;;;4.17;;
7025;SDS011;3554;42.132;24.786;2023-06-19T14:51:57;4.37;;;4.07;;
7025;SDS011;3554;42.132;24.786;2023-06-19T14:54:24;4.60;;;4.40;;
7025;SDS011;3554;42.132;24.786;2023-06-19T14:56:51;4.50;;;4.10;;
7025;SDS011;3554;42.132;24.786;2023-06-19T14:59:18;4.67;;;4.23;;
7025;SDS011;3554;42.132;24.786;2023-06-19T15:01:46;4.77;;;4.47;;
7025;SDS011;3554;42.132;24.786;2023-06-19T15:04:13;4.97;;;4.67;;